createdAt,value
2019-03-19T00:00:14.338Z,17.92
2019-03-19T00:02:47.927Z,24.37
2019-03-19T00:05:17.171Z,22.15
2019-03-19T00:07:49.989Z,20.50
2019-03-19T00:10:20.184Z,15.72
2019-03-19T00:12:54.402Z,23.40
2019-03-19T00:15:27.780Z,28.52
2019-03-19T00:17:58.029Z,20.30
2019-03-19T00:20:28.826Z,16.42
2019-03-19T00:23:00.275Z,17.20
2019-03-19T00:25:30.719Z,24.50
2019-03-19T00:28:00.061Z,19.85
2019-03-19T00:30:33.960Z,15.68
2019-03-19T00:33:07.511Z,17.87
2019-03-19T00:35:40.026Z,20.08
2019-03-19T00:38:11.541Z,17.07
2019-03-19T00:40:40.821Z,21.97
2019-03-19T00:43:11.862Z,17.27
2019-03-19T00:45:43.474Z,17.92
2019-03-19T00:48:15.442Z,20.88
2019-03-19T00:50:46.836Z,17.25
2019-03-19T00:53:19.303Z,15.28
2019-03-19T00:55:50.473Z,14.60
2019-03-19T00:58:20.118Z,16.30
2019-03-19T01:00:50.563Z,17.15
2019-03-19T01:03:21.873Z,18.75
2019-03-19T01:05:51.159Z,17.87
2019-03-19T01:08:23.906Z,14.45
2019-03-19T01:10:54.977Z,16.62
2019-03-19T01:13:30.219Z,17.90
2019-03-19T01:15:59.455Z,23.87
2019-03-19T01:18:31.016Z,15.95
2019-03-19T01:21:00.293Z,21.27
2019-03-19T01:23:31.764Z,26.10
2019-03-19T01:26:04.110Z,22.48
2019-03-19T01:28:35.571Z,18.37
2019-03-19T01:33:38.101Z,19.20
2019-03-19T01:36:07.438Z,19.75
2019-03-19T01:38:36.720Z,18.70
2019-03-19T01:41:07.008Z,16.65
2019-03-19T01:43:42.945Z,19.77
2019-03-19T01:46:13.457Z,15.32
2019-03-19T01:48:43.567Z,16.77
2019-03-19T01:51:12.970Z,19.27
2019-03-19T01:53:47.944Z,20.45
2019-03-19T01:56:20.241Z,19.55
2019-03-19T01:58:52.257Z,17.32
2019-03-19T02:01:21.590Z,18.90
2019-03-19T02:03:54.443Z,18.35
2019-03-19T02:06:34.357Z,18.48
2019-03-19T02:09:04.419Z,20.05
2019-03-19T02:11:33.863Z,15.90
2019-03-19T02:14:03.172Z,18.42
2019-03-19T02:16:32.929Z,17.90
2019-03-19T02:19:02.197Z,16.82
2019-03-19T02:21:37.617Z,17.80
2019-03-19T02:24:08.573Z,25.92
2019-03-19T02:26:38.992Z,21.02
2019-03-19T02:29:10.711Z,16.20
2019-03-19T02:31:42.199Z,19.98
2019-03-19T02:34:13.869Z,16.07
2019-03-19T02:36:43.189Z,17.05
2019-03-19T02:39:17.686Z,21.80
2019-03-19T02:41:49.615Z,18.60
2019-03-19T02:44:20.047Z,15.70
2019-03-19T02:46:49.371Z,17.55
2019-03-19T02:49:19.929Z,16.05
2019-03-19T02:51:49.246Z,18.67
2019-03-19T02:54:20.174Z,12.90
2019-03-19T02:56:49.420Z,20.15
2019-03-19T02:59:18.704Z,16.95
2019-03-19T03:01:54.297Z,18.87
2019-03-19T03:04:23.721Z,15.80
2019-03-19T03:06:53.052Z,19.70
2019-03-19T03:09:22.399Z,17.55
2019-03-19T03:11:54.621Z,21.42
2019-03-19T03:14:28.193Z,20.73
2019-03-19T03:17:02.082Z,21.25
2019-03-19T03:19:31.353Z,17.85
2019-03-19T03:22:00.669Z,23.85
2019-03-19T03:24:34.047Z,17.27
2019-03-19T03:27:04.352Z,23.15
2019-03-19T03:29:35.353Z,22.58
2019-03-19T03:32:07.826Z,16.40
2019-03-19T03:34:37.991Z,21.35
2019-03-19T03:37:07.343Z,20.48
2019-03-19T03:39:38.823Z,19.15
2019-03-19T03:42:10.078Z,18.77
2019-03-19T03:44:44.669Z,18.62
2019-03-19T03:47:14.983Z,20.60
2019-03-19T03:49:47.816Z,20.15
2019-03-19T03:52:19.481Z,16.45
2019-03-19T03:57:22.578Z,17.20
2019-03-19T03:59:54.340Z,19.90
2019-03-19T04:02:30.779Z,19.42
2019-03-19T04:05:00.037Z,12.65
2019-03-19T04:07:34.380Z,18.45
2019-03-19T04:10:06.383Z,17.70
2019-03-19T04:12:46.438Z,17.25
2019-03-19T04:15:16.967Z,19.15
2019-03-19T04:17:49.495Z,22.77
2019-03-19T04:20:22.939Z,25.27
2019-03-19T04:22:52.284Z,27.35
2019-03-19T04:25:21.590Z,16.20
2019-03-19T04:27:53.573Z,25.35
2019-03-19T04:30:23.120Z,18.12
2019-03-19T04:32:54.981Z,21.42
2019-03-19T04:35:24.565Z,23.95
2019-03-19T04:37:57.754Z,17.52
2019-03-19T04:40:30.158Z,24.45
2019-03-19T04:43:11.058Z,26.85
2019-03-19T04:45:45.729Z,30.85
2019-03-19T04:48:18.801Z,19.17
2019-03-19T04:53:24.387Z,21.23
2019-03-19T04:56:08.226Z,17.70
2019-03-19T04:58:41.541Z,20.70
2019-03-19T05:01:11.790Z,27.02
2019-03-19T05:03:41.276Z,28.60
2019-03-19T05:06:15.600Z,22.25
2019-03-19T05:08:49.265Z,23.52
2019-03-19T05:11:18.478Z,25.68
2019-03-19T05:13:50.936Z,27.75
2019-03-19T05:16:20.261Z,27.73
2019-03-19T05:18:50.700Z,24.92
2019-03-19T05:21:20.000Z,24.15
2019-03-19T05:23:49.332Z,24.57
2019-03-19T05:26:20.339Z,22.00
2019-03-19T05:28:50.594Z,23.38
2019-03-19T05:31:20.837Z,28.10
2019-03-19T05:33:51.012Z,20.08
2019-03-19T05:36:22.321Z,20.37
2019-03-19T05:38:55.160Z,16.20
2019-03-19T05:41:24.545Z,29.95
2019-03-19T05:43:56.032Z,31.27
2019-03-19T05:46:26.035Z,25.65
2019-03-19T05:48:57.868Z,22.80
2019-03-19T05:51:27.216Z,19.98
2019-03-19T05:53:58.080Z,27.42
2019-03-19T05:56:28.823Z,20.77
2019-03-19T05:59:07.592Z,22.65
2019-03-19T06:04:42.605Z,21.55
2019-03-19T06:07:14.993Z,29.50
2019-03-19T06:09:44.676Z,17.32
2019-03-19T06:12:16.468Z,24.90
2019-03-19T06:14:45.759Z,27.30
2019-03-19T06:17:15.425Z,21.02
2019-03-19T06:19:46.656Z,28.62
2019-03-19T06:22:19.997Z,32.48
2019-03-19T06:24:53.105Z,21.45
2019-03-19T06:27:22.756Z,21.12
2019-03-19T06:29:52.925Z,19.32
2019-03-19T06:32:22.466Z,18.55
2019-03-19T06:34:51.778Z,23.70
2019-03-19T06:37:23.134Z,21.82
2019-03-19T06:39:54.818Z,28.12
2019-03-19T06:42:24.453Z,22.00
2019-03-19T06:45:01.320Z,26.82
2019-03-19T06:47:32.631Z,18.73
2019-03-19T06:50:01.877Z,22.40
2019-03-19T06:52:35.023Z,22.32
2019-03-19T06:57:39.195Z,21.15
2019-03-19T07:00:15.259Z,22.30
2019-03-19T07:02:46.238Z,16.10
2019-03-19T07:05:21.544Z,24.25
2019-03-19T07:07:52.868Z,18.52
2019-03-19T07:10:25.356Z,16.25
2019-03-19T07:12:56.451Z,22.05
2019-03-19T07:15:31.525Z,19.55
2019-03-19T07:18:03.610Z,19.95
2019-03-19T07:20:35.116Z,28.95
2019-03-19T07:23:08.096Z,21.90
2019-03-19T07:28:21.426Z,20.82
2019-03-19T07:30:44.490Z,23.95
2019-03-19T07:33:15.385Z,17.57
2019-03-19T07:35:46.790Z,19.60
2019-03-19T07:38:16.523Z,17.42
2019-03-19T07:40:45.920Z,30.48
2019-03-19T07:43:19.921Z,22.13
2019-03-19T07:45:52.946Z,22.30
2019-03-19T07:50:56.353Z,22.00
2019-03-19T07:56:03.946Z,21.62
2019-03-19T07:58:44.801Z,18.00
2019-03-19T08:01:05.145Z,15.08
2019-03-19T08:03:37.859Z,23.65
2019-03-19T08:06:07.195Z,21.35
2019-03-19T08:08:37.427Z,16.87
2019-03-19T08:11:23.570Z,18.65
2019-03-19T08:13:52.857Z,17.67
2019-03-19T08:16:27.335Z,18.05
2019-03-19T08:18:54.247Z,17.23
2019-03-19T08:21:26.082Z,18.62
2019-03-19T08:23:58.756Z,16.75
2019-03-19T08:29:28.051Z,21.55
2019-03-19T08:31:57.396Z,23.12
2019-03-19T08:34:26.816Z,20.23
2019-03-19T08:36:58.496Z,26.30
2019-03-19T08:39:29.141Z,26.60
2019-03-19T08:42:02.522Z,16.73
2019-03-19T08:44:33.863Z,21.17
2019-03-19T08:47:09.250Z,22.62
2019-03-19T08:49:39.520Z,22.10
2019-03-19T08:52:08.839Z,27.75
2019-03-19T08:54:39.779Z,23.38
2019-03-19T08:57:13.685Z,26.23
2019-03-19T08:59:46.631Z,21.85
2019-03-19T09:02:18.798Z,28.27
2019-03-19T09:04:48.137Z,26.27
2019-03-19T09:07:21.255Z,26.52
2019-03-19T09:09:56.554Z,23.25
2019-03-19T09:12:28.130Z,24.80
2019-03-19T09:15:01.101Z,29.25
2019-03-19T09:20:04.186Z,26.05
2019-03-19T09:22:33.554Z,27.42
2019-03-19T09:25:03.229Z,25.02
2019-03-19T09:27:35.358Z,29.52
2019-03-19T09:30:18.844Z,24.37
2019-03-19T09:32:50.188Z,23.57
2019-03-19T09:35:26.039Z,28.07
2019-03-19T09:40:57.773Z,23.92
2019-03-19T09:43:29.156Z,22.98
2019-03-19T09:46:01.942Z,25.27
2019-03-19T09:48:36.630Z,21.17
2019-03-19T09:51:10.768Z,25.02
2019-03-19T09:53:40.989Z,27.52
2019-03-19T09:56:12.683Z,25.43
2019-03-19T09:58:42.127Z,26.42
2019-03-19T10:01:11.559Z,23.40
2019-03-19T10:03:47.887Z,29.90
2019-03-19T10:06:17.329Z,22.75
2019-03-19T10:08:46.626Z,25.90
2019-03-19T10:11:16.918Z,17.42
2019-03-19T10:20:25.794Z,21.75
2019-03-19T10:22:55.230Z,17.45
2019-03-19T10:25:28.187Z,25.70
2019-03-19T10:27:57.516Z,28.02
2019-03-19T10:30:26.963Z,15.00
2019-03-19T10:32:58.647Z,15.28
2019-03-19T10:35:28.108Z,13.22
2019-03-19T10:37:57.492Z,22.25
2019-03-19T10:40:26.904Z,16.32
2019-03-19T10:42:56.271Z,16.85
2019-03-19T10:45:32.879Z,18.85
2019-03-19T10:48:06.769Z,14.35
2019-03-19T10:50:42.350Z,14.70
2019-03-19T10:53:13.797Z,15.95
2019-03-19T10:55:45.052Z,14.68
2019-03-19T10:58:15.604Z,16.67
2019-03-19T11:00:45.554Z,15.70
2019-03-19T11:03:16.850Z,17.40
2019-03-19T11:05:46.199Z,14.10
2019-03-19T11:08:16.646Z,18.48
2019-03-19T11:10:45.988Z,20.10
2019-03-19T11:13:17.054Z,13.30
2019-03-19T11:15:49.548Z,15.08
2019-03-19T11:18:18.879Z,13.93
2019-03-19T11:20:48.205Z,16.62
2019-03-19T11:23:17.560Z,15.20
2019-03-19T11:25:54.431Z,15.25
2019-03-19T11:30:49.242Z,13.58
2019-03-19T11:33:23.085Z,17.35
2019-03-19T11:35:52.931Z,17.05
2019-03-19T11:38:22.270Z,14.78
2019-03-19T11:40:51.629Z,13.62
2019-03-19T11:43:21.025Z,16.57
2019-03-19T11:45:50.373Z,12.47
2019-03-19T11:48:20.843Z,11.10
2019-03-19T11:50:50.147Z,13.32
2019-03-19T11:53:22.680Z,15.30
2019-03-19T11:55:53.128Z,14.75
2019-03-19T11:58:23.463Z,11.28
2019-03-19T12:01:00.115Z,11.40
2019-03-19T12:03:29.444Z,11.90
2019-03-19T12:06:00.351Z,13.90
2019-03-19T12:08:41.726Z,14.85
2019-03-19T12:11:14.856Z,11.48
2019-03-19T12:13:48.213Z,13.28
2019-03-19T12:16:18.105Z,12.85
2019-03-19T12:18:49.289Z,12.45
2019-03-19T12:21:22.108Z,12.15
2019-03-19T12:23:56.263Z,12.20
2019-03-19T12:26:25.606Z,11.05
2019-03-19T12:28:56.128Z,9.53
2019-03-19T12:31:25.510Z,14.85
2019-03-19T12:33:55.849Z,14.78
2019-03-19T12:36:25.230Z,12.33
2019-03-19T12:38:56.169Z,9.93
2019-03-19T12:41:25.520Z,11.60
2019-03-19T12:43:56.816Z,9.50
2019-03-19T12:46:26.113Z,11.83
2019-03-19T12:49:00.385Z,9.90
2019-03-19T12:51:31.069Z,14.23
2019-03-19T12:54:00.423Z,19.02
2019-03-19T12:56:30.729Z,16.50
2019-03-19T12:59:00.029Z,10.85
2019-03-19T13:01:31.394Z,13.80
2019-03-19T13:04:03.962Z,15.08
2019-03-19T13:06:34.854Z,13.72
2019-03-19T13:09:06.144Z,14.40
2019-03-19T13:11:39.719Z,13.15
2019-03-19T13:14:14.760Z,12.75
2019-03-19T13:16:44.153Z,15.23
2019-03-19T13:19:16.546Z,11.65
2019-03-19T13:21:50.507Z,12.10
2019-03-19T13:24:37.177Z,11.48
2019-03-19T13:27:10.307Z,13.43
2019-03-19T13:29:52.939Z,15.30
2019-03-19T13:32:22.352Z,13.00
2019-03-19T13:34:52.655Z,11.15
2019-03-19T13:37:26.501Z,10.32
2019-03-19T13:40:00.544Z,13.43
2019-03-19T13:42:35.289Z,10.75
2019-03-19T13:45:11.137Z,11.78
2019-03-19T13:47:45.014Z,16.37
2019-03-19T13:50:18.144Z,9.38
2019-03-19T13:52:49.183Z,12.40
2019-03-19T13:55:23.170Z,14.80
2019-03-19T13:57:53.888Z,11.57
2019-03-19T14:00:25.177Z,10.60
2019-03-19T14:02:54.490Z,8.43
2019-03-19T14:05:24.709Z,15.15
2019-03-19T14:07:54.374Z,12.85
2019-03-19T14:10:25.627Z,8.23
2019-03-19T14:12:55.700Z,13.22
2019-03-19T14:15:27.766Z,16.57
2019-03-19T14:17:57.081Z,12.30
2019-03-19T14:20:27.248Z,12.20
2019-03-19T14:23:04.480Z,11.48
2019-03-19T14:25:35.663Z,10.95
2019-03-19T14:28:48.578Z,15.75
2019-03-19T14:56:04.358Z,19.70
2019-03-19T14:58:33.629Z,15.28
2019-03-19T15:01:02.905Z,12.70
2019-03-19T15:03:32.201Z,17.40
2019-03-19T15:06:01.487Z,16.75
2019-03-19T15:08:32.725Z,14.63
2019-03-19T15:11:01.990Z,14.95
2019-03-19T15:13:31.273Z,17.05
2019-03-19T15:16:00.653Z,16.42
2019-03-19T15:18:29.992Z,18.10
2019-03-19T15:20:59.247Z,15.48
2019-03-19T15:23:31.684Z,17.48
2019-03-19T15:26:00.920Z,16.50
2019-03-19T15:28:31.891Z,15.65
2019-03-19T15:31:01.302Z,14.47
2019-03-19T15:33:30.511Z,18.30
2019-03-19T15:35:59.833Z,15.63
2019-03-19T15:38:34.998Z,16.97
2019-03-19T17:04:05.577Z,17.40
2019-03-19T18:01:57.314Z,20.35
2019-03-19T18:07:44.022Z,17.80
2019-03-19T18:10:22.010Z,16.45
2019-03-19T18:19:02.803Z,13.10
2019-03-19T18:25:00.939Z,13.55
2019-03-19T18:33:40.421Z,18.42
2019-03-19T18:36:11.552Z,14.95
2019-03-19T18:47:49.949Z,15.20
2019-03-19T18:50:29.907Z,18.17
2019-03-19T18:53:14.278Z,20.48
2019-03-19T19:45:20.296Z,18.53
2019-03-19T19:50:53.179Z,19.45
2019-03-19T19:56:35.612Z,20.57
2019-03-19T20:08:20.773Z,21.05
2019-03-19T20:11:01.003Z,16.80
2019-03-19T20:13:54.071Z,18.57
2019-03-19T20:16:24.373Z,16.02
2019-03-19T20:18:55.713Z,19.85
2019-03-19T20:49:06.575Z,17.62
2019-03-19T21:04:00.232Z,16.80
2019-03-19T21:06:46.545Z,20.90
2019-03-19T21:18:48.412Z,18.25
2019-03-19T21:21:17.752Z,15.43
2019-03-19T21:24:24.030Z,14.73
2019-03-19T21:26:27.744Z,21.07
2019-03-19T21:28:56.906Z,16.27
2019-03-19T21:31:27.592Z,18.30
2019-03-19T21:34:00.820Z,21.00
2019-03-19T21:36:30.141Z,16.73
2019-03-19T21:38:59.405Z,20.57
2019-03-19T21:41:28.861Z,20.15
2019-03-19T21:44:18.618Z,19.57
2019-03-19T21:47:07.250Z,18.57
2019-03-19T21:49:52.263Z,18.70
2019-03-19T21:52:27.485Z,19.67
2019-03-19T21:55:13.954Z,16.05
2019-03-19T21:58:02.138Z,18.98
2019-03-19T22:09:47.651Z,19.15
2019-03-19T22:12:14.516Z,22.65
2019-03-19T22:14:47.821Z,18.90
2019-03-19T22:17:19.094Z,18.95
2019-03-19T22:19:50.518Z,18.95
2019-03-19T22:22:21.979Z,20.00
2019-03-19T22:24:55.520Z,20.27
2019-03-19T22:33:25.901Z,19.70
2019-03-19T22:36:11.978Z,22.45
2019-03-19T22:38:56.775Z,25.45
2019-03-19T22:41:46.678Z,16.42
2019-03-19T22:53:31.281Z,19.27
2019-03-19T22:56:09.555Z,18.65
2019-03-19T23:04:33.695Z,23.33
2019-03-19T23:18:41.552Z,24.30
2019-03-19T23:21:11.935Z,26.23
2019-03-19T23:23:41.243Z,14.60
2019-03-19T23:26:11.600Z,19.00
2019-03-19T23:28:43.821Z,20.55
2019-03-19T23:31:13.652Z,23.18
2019-03-19T23:33:44.171Z,18.80
2019-03-19T23:36:13.531Z,16.75
2019-03-19T23:38:43.878Z,18.75
2019-03-19T23:41:13.153Z,27.50
2019-03-19T23:43:42.370Z,23.42
2019-03-19T23:46:11.721Z,18.87
2019-03-19T23:48:44.198Z,19.27
2019-03-19T23:51:16.425Z,21.57
2019-03-19T23:53:45.804Z,24.27
2019-03-19T23:56:17.950Z,18.27
2019-03-19T23:58:47.213Z,15.77
